createdAt,value
2017-10-27T00:00:27.572Z,0
2017-10-27T00:01:20.003Z,0
2017-10-27T00:02:13.046Z,0
2017-10-27T00:03:05.694Z,0
2017-10-27T00:03:58.118Z,0
2017-10-27T00:04:50.570Z,0
2017-10-27T00:05:43.175Z,0
2017-10-27T00:06:35.295Z,0
2017-10-27T00:07:27.493Z,0
2017-10-27T00:08:20.742Z,0
2017-10-27T00:09:13.200Z,0
2017-10-27T00:10:05.445Z,0
2017-10-27T00:10:57.120Z,0
2017-10-27T00:11:49.049Z,0
2017-10-27T00:12:41.700Z,0
2017-10-27T00:13:34.010Z,0
2017-10-27T00:14:27.190Z,0
2017-10-27T00:17:15.350Z,0
2017-10-27T00:18:07.654Z,0
2017-10-27T00:19:00.624Z,0
2017-10-27T00:19:53.035Z,0
2017-10-27T00:20:45.737Z,0
2017-10-27T00:21:38.219Z,0
2017-10-27T00:22:30.723Z,0
2017-10-27T00:23:25.346Z,0
2017-10-27T00:24:17.752Z,0
2017-10-27T00:25:10.258Z,0
2017-10-27T00:26:02.736Z,0
2017-10-27T00:26:55.229Z,0
2017-10-27T00:27:47.859Z,0
2017-10-27T00:28:40.688Z,0
2017-10-27T00:29:33.975Z,0
2017-10-27T00:30:26.658Z,0
2017-10-27T00:31:21.407Z,0
2017-10-27T00:32:13.930Z,0
2017-10-27T00:33:06.317Z,0
2017-10-27T00:33:58.605Z,0
2017-10-27T00:34:50.607Z,0
2017-10-27T00:35:43.712Z,0
2017-10-27T00:36:36.236Z,0
2017-10-27T00:37:28.506Z,0
2017-10-27T00:38:21.847Z,0
2017-10-27T00:39:15.119Z,0
2017-10-27T00:40:07.147Z,0
2017-10-27T00:41:00.581Z,0
2017-10-27T00:41:53.735Z,0
2017-10-27T00:42:46.254Z,0
2017-10-27T00:43:38.720Z,0
2017-10-27T00:44:31.073Z,0
2017-10-27T00:45:25.016Z,0
2017-10-27T00:46:17.580Z,0
2017-10-27T00:47:09.566Z,0
2017-10-27T00:48:02.028Z,0
2017-10-27T00:48:54.937Z,0
2017-10-27T00:49:39.491Z,0
2017-10-27T00:50:19.929Z,0
2017-10-27T00:51:00.336Z,0
2017-10-27T00:51:40.912Z,0
2017-10-27T00:52:21.766Z,0
2017-10-27T00:53:02.052Z,0
2017-10-27T00:53:42.499Z,0
2017-10-27T00:54:23.023Z,0
2017-10-27T00:55:03.389Z,0
2017-10-27T00:55:43.762Z,0
2017-10-27T00:56:24.201Z,0
2017-10-27T00:57:04.648Z,0
2017-10-27T00:57:45.084Z,0
2017-10-27T00:58:25.474Z,0
2017-10-27T00:59:05.977Z,0
2017-10-27T00:59:46.557Z,0
2017-10-27T01:00:27.059Z,0
2017-10-27T01:01:07.412Z,0
2017-10-27T01:01:47.934Z,0
2017-10-27T01:02:28.342Z,0
2017-10-27T01:03:08.891Z,0
2017-10-27T01:03:49.121Z,0
2017-10-27T01:04:29.725Z,0
2017-10-27T01:05:10.148Z,0
2017-10-27T01:05:50.578Z,0
2017-10-27T01:06:30.932Z,0
2017-10-27T01:07:11.382Z,0
2017-10-27T01:07:51.749Z,0
2017-10-27T01:08:32.109Z,0
2017-10-27T01:09:12.843Z,0
2017-10-27T01:09:53.163Z,0
2017-10-27T01:10:33.618Z,0
2017-10-27T01:11:14.394Z,0
2017-10-27T01:11:54.692Z,0
2017-10-27T01:12:35.273Z,0
2017-10-27T01:13:15.816Z,0
2017-10-27T01:13:56.618Z,0
2017-10-27T01:14:37.305Z,0
2017-10-27T01:15:17.917Z,0
2017-10-27T01:15:58.423Z,0
2017-10-27T01:16:38.846Z,0
2017-10-27T01:17:19.396Z,0
2017-10-27T01:17:59.828Z,0
2017-10-27T01:18:40.346Z,0
2017-10-27T01:19:20.903Z,0
2017-10-27T01:20:01.468Z,0
2017-10-27T01:20:42.031Z,0
2017-10-27T01:21:22.478Z,0
2017-10-27T01:22:02.818Z,0
2017-10-27T01:22:43.297Z,0
2017-10-27T01:23:23.763Z,0
2017-10-27T01:24:04.062Z,0
2017-10-27T01:24:44.465Z,0
2017-10-27T01:25:24.910Z,0
2017-10-27T01:26:05.297Z,0
2017-10-27T01:26:45.742Z,0
2017-10-27T01:27:26.194Z,0
2017-10-27T01:28:06.443Z,0
2017-10-27T01:28:46.922Z,0
2017-10-27T01:29:27.906Z,0
2017-10-27T01:30:08.373Z,0
2017-10-27T01:30:48.826Z,0
2017-10-27T01:31:29.257Z,0
2017-10-27T01:32:09.783Z,0
2017-10-27T01:32:50.077Z,0
2017-10-27T01:33:30.614Z,0
2017-10-27T01:34:11.559Z,0
2017-10-27T01:34:51.974Z,0
2017-10-27T01:35:32.458Z,0
2017-10-27T01:36:12.805Z,0
2017-10-27T01:36:53.285Z,0
2017-10-27T01:37:33.825Z,0
2017-10-27T01:38:14.241Z,0
2017-10-27T01:38:54.440Z,0
2017-10-27T01:39:34.914Z,0
2017-10-27T01:40:15.418Z,0
2017-10-27T01:40:55.869Z,0
2017-10-27T01:41:36.297Z,0
2017-10-27T01:42:17.409Z,0
2017-10-27T01:42:57.779Z,0
2017-10-27T01:43:38.341Z,0
2017-10-27T01:44:18.689Z,0
2017-10-27T01:44:59.304Z,0
2017-10-27T01:45:39.736Z,0
2017-10-27T01:46:20.159Z,0
2017-10-27T01:47:00.614Z,0
2017-10-27T01:47:41.302Z,0
2017-10-27T01:48:21.791Z,0
2017-10-27T01:49:02.119Z,0
2017-10-27T01:49:42.626Z,0
2017-10-27T01:50:23.105Z,0
2017-10-27T01:51:03.450Z,0
2017-10-27T01:51:43.874Z,0
2017-10-27T01:52:24.291Z,0
2017-10-27T01:53:04.736Z,0
2017-10-27T01:53:45.081Z,0
2017-10-27T01:54:25.652Z,0
2017-10-27T01:55:06.168Z,0
2017-10-27T01:55:46.616Z,0
2017-10-27T01:56:26.984Z,0
2017-10-27T01:57:08.171Z,0
2017-10-27T01:57:48.550Z,0
2017-10-27T01:58:29.003Z,0
2017-10-27T01:59:09.915Z,0
2017-10-27T01:59:50.350Z,0
2017-10-27T02:00:31.595Z,0
2017-10-27T02:01:11.885Z,0
2017-10-27T02:01:52.336Z,0
2017-10-27T02:02:32.877Z,0
2017-10-27T02:03:13.289Z,0
2017-10-27T02:03:53.733Z,0
2017-10-27T02:04:34.071Z,0
2017-10-27T02:05:14.633Z,0
2017-10-27T02:05:54.970Z,0
2017-10-27T02:06:35.388Z,0
2017-10-27T02:07:15.828Z,0
2017-10-27T02:07:56.257Z,0
2017-10-27T02:08:36.715Z,0
2017-10-27T02:09:17.154Z,0
2017-10-27T02:09:57.656Z,0
2017-10-27T02:10:38.136Z,0
2017-10-27T02:11:18.590Z,0
2017-10-27T02:11:59.099Z,0
2017-10-27T02:12:39.490Z,0
2017-10-27T02:13:19.930Z,0
2017-10-27T02:14:00.267Z,0
2017-10-27T02:14:40.901Z,0
2017-10-27T02:15:21.225Z,0
2017-10-27T02:16:01.991Z,0
2017-10-27T02:16:42.258Z,0
2017-10-27T02:17:22.660Z,0
2017-10-27T02:18:03.145Z,0
2017-10-27T02:18:43.851Z,0
2017-10-27T02:19:24.371Z,0
2017-10-27T02:20:04.756Z,0
2017-10-27T02:20:45.212Z,0
2017-10-27T02:21:25.699Z,0
2017-10-27T02:22:06.173Z,0
2017-10-27T02:22:46.632Z,0
2017-10-27T02:23:27.055Z,0
2017-10-27T02:24:07.481Z,0
2017-10-27T02:24:47.877Z,0
2017-10-27T02:25:28.271Z,0
2017-10-27T02:26:08.746Z,0
2017-10-27T02:26:49.383Z,0
2017-10-27T02:27:30.064Z,0
2017-10-27T02:28:10.457Z,0
2017-10-27T02:28:50.992Z,0
2017-10-27T02:29:31.688Z,0
2017-10-27T02:30:12.188Z,0
2017-10-27T02:30:52.594Z,0
2017-10-27T02:31:32.928Z,0
2017-10-27T02:32:13.315Z,0
2017-10-27T02:32:53.964Z,0
2017-10-27T02:33:34.407Z,0
2017-10-27T02:34:14.769Z,0
2017-10-27T02:34:55.171Z,0
2017-10-27T02:35:35.642Z,0
2017-10-27T02:36:16.143Z,0
2017-10-27T02:36:56.523Z,0
2017-10-27T02:37:36.993Z,0
2017-10-27T02:38:17.370Z,0
2017-10-27T02:38:57.703Z,0
2017-10-27T02:39:38.163Z,0
2017-10-27T02:40:18.578Z,0
2017-10-27T02:40:59.139Z,0
2017-10-27T02:41:39.473Z,0
2017-10-27T02:42:19.912Z,0
2017-10-27T02:43:00.373Z,0
2017-10-27T02:43:40.700Z,0
2017-10-27T02:44:21.187Z,0
2017-10-27T02:45:01.558Z,0
2017-10-27T02:45:41.950Z,0
2017-10-27T02:46:22.292Z,0
2017-10-27T02:47:02.681Z,0
2017-10-27T02:47:43.343Z,0
2017-10-27T02:48:23.639Z,0
2017-10-27T02:49:04.057Z,0
2017-10-27T02:49:44.477Z,0
2017-10-27T02:50:24.868Z,0
2017-10-27T02:51:05.604Z,0
2017-10-27T02:51:46.076Z,0
2017-10-27T02:52:26.487Z,0
2017-10-27T02:53:07.092Z,0
2017-10-27T02:53:47.676Z,0
2017-10-27T02:54:28.086Z,0
2017-10-27T02:55:08.645Z,0
2017-10-27T02:55:48.872Z,0
2017-10-27T02:56:29.235Z,0
2017-10-27T02:57:09.946Z,0
2017-10-27T02:57:50.341Z,0
2017-10-27T02:58:30.680Z,0
2017-10-27T02:59:11.077Z,0
2017-10-27T02:59:51.449Z,0
2017-10-27T03:00:31.942Z,0
2017-10-27T03:01:12.276Z,0
2017-10-27T03:01:52.947Z,0
2017-10-27T03:02:33.469Z,0
2017-10-27T03:03:13.925Z,0
2017-10-27T03:03:54.315Z,0
2017-10-27T03:04:35.039Z,0
2017-10-27T03:05:15.525Z,0
2017-10-27T03:05:56.222Z,0
2017-10-27T03:06:36.945Z,0
2017-10-27T03:07:17.193Z,0
2017-10-27T03:07:57.596Z,0
2017-10-27T03:08:38.239Z,0
2017-10-27T03:09:18.775Z,0
2017-10-27T03:09:59.254Z,0
2017-10-27T03:10:40.560Z,0
2017-10-27T03:11:21.069Z,0
2017-10-27T03:12:01.540Z,0
2017-10-27T03:12:42.982Z,0
2017-10-27T03:13:23.409Z,0
2017-10-27T03:14:03.760Z,0
2017-10-27T03:14:44.696Z,0
2017-10-27T03:15:25.379Z,0
2017-10-27T03:16:06.142Z,0
2017-10-27T03:16:46.752Z,0
2017-10-27T03:17:27.354Z,0
2017-10-27T03:18:08.357Z,0
2017-10-27T03:18:48.899Z,0
2017-10-27T03:19:29.295Z,0
2017-10-27T03:20:09.662Z,0
2017-10-27T03:20:50.345Z,0
2017-10-27T03:21:31.165Z,0
2017-10-27T03:22:11.669Z,0
2017-10-27T03:22:53.644Z,0
2017-10-27T03:23:34.052Z,0
2017-10-27T03:24:14.698Z,0
2017-10-27T03:24:56.677Z,0
2017-10-27T03:25:37.240Z,0
2017-10-27T03:26:18.355Z,0
2017-10-27T03:27:00.266Z,0
2017-10-27T03:27:40.689Z,0
2017-10-27T03:28:21.373Z,0
2017-10-27T03:29:01.653Z,0
2017-10-27T03:29:42.118Z,0
2017-10-27T03:30:22.796Z,0
2017-10-27T03:31:03.955Z,0
2017-10-27T03:31:44.402Z,0
2017-10-27T03:32:25.656Z,0
2017-10-27T03:33:07.845Z,0
2017-10-27T03:33:48.325Z,0
2017-10-27T03:34:29.752Z,0
2017-10-27T03:35:11.287Z,0
2017-10-27T03:35:52.117Z,0
2017-10-27T03:36:33.381Z,0
2017-10-27T03:37:14.082Z,0
2017-10-27T03:37:54.553Z,0
2017-10-27T03:38:36.044Z,0
2017-10-27T03:39:17.554Z,0
2017-10-27T03:39:58.679Z,0
2017-10-27T03:40:39.225Z,0
2017-10-27T03:41:19.825Z,0
2017-10-27T03:42:01.957Z,0
2017-10-27T03:42:42.680Z,0
2017-10-27T03:43:24.210Z,0
2017-10-27T03:44:05.375Z,0
2017-10-27T03:44:46.480Z,0
2017-10-27T03:45:27.131Z,0
2017-10-27T03:46:08.036Z,0
2017-10-27T03:46:48.516Z,0
2017-10-27T03:47:29.192Z,0
2017-10-27T03:48:09.670Z,0
2017-10-27T03:48:50.548Z,0
2017-10-27T03:49:30.973Z,0
2017-10-27T03:50:11.651Z,0
2017-10-27T03:50:52.758Z,0
2017-10-27T03:51:33.642Z,0
2017-10-27T03:52:14.196Z,0
2017-10-27T03:52:54.567Z,0
2017-10-27T03:53:36.044Z,0
2017-10-27T03:54:16.800Z,0
2017-10-27T03:54:59.777Z,0
2017-10-27T03:55:40.639Z,0
2017-10-27T03:56:20.992Z,0
2017-10-27T03:57:02.000Z,0
2017-10-27T03:57:42.680Z,0
2017-10-27T03:58:23.991Z,0
2017-10-27T03:59:05.011Z,0
2017-10-27T03:59:45.624Z,0
2017-10-27T04:00:26.180Z,0
2017-10-27T04:01:06.615Z,0
2017-10-27T04:01:46.978Z,0
2017-10-27T04:02:27.347Z,0
2017-10-27T04:03:07.938Z,0
2017-10-27T04:40:57.502Z,0
2017-10-27T04:41:37.844Z,0
2017-10-27T04:42:18.382Z,0
2017-10-27T04:42:58.742Z,0
2017-10-27T04:43:39.105Z,0
2017-10-27T04:44:19.622Z,0
2017-10-27T04:45:00.028Z,0
2017-10-27T04:45:40.485Z,0
2017-10-27T04:46:20.959Z,0
2017-10-27T04:47:01.386Z,0
2017-10-27T04:47:41.785Z,0
2017-10-27T04:48:22.443Z,0
2017-10-27T04:49:02.849Z,0
2017-10-27T04:49:43.257Z,0
2017-10-27T04:50:23.611Z,0
2017-10-27T04:51:04.027Z,0
2017-10-27T04:51:44.507Z,0
2017-10-27T04:52:24.919Z,0
2017-10-27T04:53:05.457Z,0
2017-10-27T04:53:46.055Z,0
2017-10-27T04:54:26.470Z,0
2017-10-27T04:55:06.971Z,0
2017-10-27T04:55:47.406Z,0
2017-10-27T04:56:27.786Z,0
2017-10-27T04:57:08.355Z,0
2017-10-27T04:57:48.819Z,0
2017-10-27T04:58:29.205Z,0
2017-10-27T04:59:09.695Z,0
2017-10-27T04:59:50.081Z,0
2017-10-27T05:00:30.473Z,0
2017-10-27T05:01:10.978Z,0
2017-10-27T05:01:51.490Z,0
2017-10-27T05:02:31.811Z,0
2017-10-27T05:03:12.225Z,0
2017-10-27T05:03:52.684Z,0
2017-10-27T05:04:33.256Z,0
2017-10-27T05:05:13.711Z,0
2017-10-27T05:05:54.253Z,0
2017-10-27T05:06:35.356Z,0
2017-10-27T05:07:15.802Z,0
2017-10-27T05:07:56.147Z,0
2017-10-27T05:08:36.771Z,0
2017-10-27T05:09:17.220Z,0
2017-10-27T05:09:57.637Z,0
2017-10-27T05:10:37.978Z,0
2017-10-27T05:11:18.586Z,0
2017-10-27T05:11:58.888Z,0
2017-10-27T05:12:39.456Z,0
2017-10-27T05:13:20.487Z,0
2017-10-27T05:14:00.988Z,0
2017-10-27T05:14:41.393Z,0
2017-10-27T05:15:21.885Z,0
2017-10-27T05:16:02.431Z,0
2017-10-27T05:16:42.796Z,0
2017-10-27T05:17:23.194Z,0
2017-10-27T05:18:03.912Z,0
2017-10-27T05:18:44.274Z,0
2017-10-27T05:19:24.780Z,0
2017-10-27T05:20:05.598Z,0
2017-10-27T05:20:45.791Z,0
2017-10-27T05:21:26.448Z,0
2017-10-27T05:22:07.168Z,0
2017-10-27T05:22:47.623Z,0
2017-10-27T05:23:28.247Z,0
2017-10-27T05:24:08.827Z,0
2017-10-27T05:24:49.520Z,0
2017-10-27T05:25:30.502Z,0
2017-10-27T05:26:11.088Z,0
2017-10-27T05:26:52.770Z,0
2017-10-27T05:27:33.220Z,0
2017-10-27T05:28:14.055Z,0
2017-10-27T05:28:54.321Z,0
2017-10-27T05:29:34.857Z,0
2017-10-27T05:30:15.477Z,0
2017-10-27T05:30:55.821Z,0
2017-10-27T05:31:36.219Z,0
2017-10-27T05:32:16.616Z,0
2017-10-27T05:32:57.178Z,0
2017-10-27T05:33:37.569Z,0
2017-10-27T05:34:18.165Z,0
2017-10-27T05:34:58.558Z,0
2017-10-27T05:35:38.932Z,0
2017-10-27T05:36:19.648Z,0
2017-10-27T05:37:00.228Z,0
2017-10-27T05:37:40.734Z,0
2017-10-27T05:38:20.957Z,0
2017-10-27T05:39:01.420Z,0
2017-10-27T05:39:41.865Z,0
2017-10-27T05:40:22.419Z,0
2017-10-27T05:41:03.055Z,0
2017-10-27T05:41:43.428Z,0
2017-10-27T05:42:23.859Z,0
2017-10-27T05:43:04.461Z,0
2017-10-27T05:43:44.887Z,0
2017-10-27T05:44:25.626Z,0
2017-10-27T05:45:14.413Z,0
2017-10-27T05:45:58.494Z,0
2017-10-27T05:46:41.770Z,0
2017-10-27T05:49:27.739Z,0
2017-10-27T05:50:23.288Z,0
2017-10-27T05:51:18.318Z,0
2017-10-27T05:52:14.411Z,0
2017-10-27T05:53:10.064Z,0
2017-10-27T05:54:01.877Z,0
2017-10-27T05:54:54.855Z,0
2017-10-27T05:55:49.615Z,0
2017-10-27T05:56:41.693Z,0
2017-10-27T05:57:34.310Z,0
2017-10-27T05:58:29.662Z,0
2017-10-27T05:59:25.163Z,0
2017-10-27T06:02:14.213Z,0
2017-10-27T06:03:06.610Z,0
2017-10-27T06:03:59.960Z,0
2017-10-27T06:04:43.741Z,0
2017-10-27T06:05:24.536Z,0
2017-10-27T06:06:04.677Z,0
2017-10-27T06:06:45.244Z,0
2017-10-27T06:07:25.781Z,0
2017-10-27T06:08:06.320Z,0
2017-10-27T06:08:46.798Z,0
2017-10-27T06:09:27.186Z,0
2017-10-27T06:10:07.740Z,0
2017-10-27T06:10:48.166Z,0
2017-10-27T06:11:28.979Z,0
2017-10-27T06:12:09.362Z,0
2017-10-27T06:12:49.896Z,0
2017-10-27T06:15:44.921Z,0
2017-10-27T06:16:38.425Z,0
2017-10-27T06:17:32.861Z,0
2017-10-27T06:18:29.048Z,0
2017-10-27T06:19:24.168Z,0
2017-10-27T06:20:19.873Z,0
2017-10-27T06:21:13.068Z,0
2017-10-27T06:22:09.473Z,0
2017-10-27T06:22:55.358Z,0
2017-10-27T06:23:35.733Z,0
2017-10-27T06:24:16.995Z,0
2017-10-27T06:24:56.942Z,0
2017-10-27T06:25:37.598Z,0
2017-10-27T06:26:18.387Z,0
2017-10-27T06:26:58.834Z,0
2017-10-27T06:27:40.710Z,0
2017-10-27T06:28:27.925Z,0
2017-10-27T06:29:12.242Z,0
2017-10-27T10:43:31.858Z,65
2017-10-27T10:44:28.186Z,65
2017-10-27T10:45:42.754Z,70
2017-10-27T10:46:42.675Z,65
2017-10-27T10:47:24.084Z,65
2017-10-27T10:48:04.493Z,65
2017-10-27T10:48:47.032Z,65
2017-10-27T10:49:27.505Z,65
2017-10-27T10:50:09.240Z,65
2017-10-27T10:50:50.382Z,45
2017-10-27T10:51:31.602Z,45
2017-10-27T10:52:13.021Z,40
2017-10-27T10:52:53.597Z,60
2017-10-27T10:53:34.470Z,50
2017-10-27T10:54:14.931Z,45
2017-10-27T10:54:55.659Z,60
2017-10-27T10:55:36.129Z,65
2017-10-27T10:56:16.804Z,70
2017-10-27T10:56:58.378Z,75
2017-10-27T10:57:40.584Z,75
2017-10-27T10:58:21.141Z,75
2017-10-27T10:59:02.761Z,70
2017-10-27T10:59:43.230Z,70
2017-10-27T11:00:23.691Z,45
2017-10-27T11:01:04.273Z,40
2017-10-27T11:01:46.760Z,65
2017-10-27T11:02:27.268Z,65
2017-10-27T11:03:08.278Z,45
2017-10-27T11:03:48.629Z,45
2017-10-27T11:04:29.735Z,50
2017-10-27T11:05:10.773Z,55
2017-10-27T11:05:51.815Z,70
2017-10-27T11:06:32.326Z,70
2017-10-27T11:07:12.768Z,60
2017-10-27T11:07:53.200Z,50
2017-10-27T11:08:34.003Z,45
2017-10-27T11:09:14.296Z,50
2017-10-27T11:09:55.860Z,70
2017-10-27T11:10:36.671Z,75
2017-10-27T11:11:17.636Z,50
2017-10-27T11:11:58.355Z,40
2017-10-27T11:12:38.729Z,40
2017-10-27T11:13:19.738Z,40
2017-10-27T11:14:01.067Z,40
2017-10-27T11:14:42.543Z,40
2017-10-27T11:15:23.716Z,40
2017-10-27T11:16:06.498Z,35
2017-10-27T11:16:46.956Z,35
2017-10-27T11:17:28.210Z,30
2017-10-27T11:18:11.212Z,30
2017-10-27T11:18:52.632Z,30
2017-10-27T11:19:33.143Z,35
2017-10-27T11:20:14.894Z,60
2017-10-27T11:20:54.943Z,60
2017-10-27T11:21:35.375Z,40
2017-10-27T11:22:16.059Z,45
2017-10-27T11:22:56.809Z,70
2017-10-27T11:23:38.003Z,45
2017-10-27T11:24:19.270Z,45
2017-10-27T11:25:00.329Z,65
2017-10-27T11:25:40.788Z,45
2017-10-27T11:26:22.378Z,70
2017-10-27T11:27:02.121Z,70
2017-10-27T11:27:42.181Z,70
2017-10-27T11:28:22.881Z,55
2017-10-27T11:29:03.606Z,40
2017-10-27T11:29:44.112Z,40
2017-10-27T11:30:24.716Z,45
2017-10-27T11:31:05.123Z,40
2017-10-27T11:31:45.529Z,40
2017-10-27T11:32:25.966Z,60
2017-10-27T11:33:06.523Z,40
2017-10-27T11:33:48.147Z,40
2017-10-27T11:34:28.628Z,35
2017-10-27T11:35:09.106Z,35
2017-10-27T11:35:56.158Z,35
2017-10-27T11:36:36.567Z,35
2017-10-27T11:37:17.176Z,35
2017-10-27T11:37:57.638Z,30
2017-10-27T11:41:28.911Z,40
2017-10-27T11:42:21.419Z,55
2017-10-27T11:43:15.062Z,45
2017-10-27T11:45:42.224Z,50
2017-10-27T11:46:22.671Z,55
2017-10-27T11:47:03.419Z,35
2017-10-27T11:47:43.561Z,45
2017-10-27T11:48:24.032Z,60
2017-10-27T11:49:04.596Z,60
2017-10-27T11:49:46.258Z,70
2017-10-27T11:50:26.570Z,70
2017-10-27T11:51:07.014Z,55
2017-10-27T11:51:47.474Z,55
2017-10-27T11:52:27.942Z,55
2017-10-27T11:53:09.422Z,50
2017-10-27T11:53:50.773Z,65
2017-10-27T11:54:31.327Z,75
2017-10-27T11:55:12.283Z,75
2017-10-27T11:55:52.702Z,65
2017-10-27T11:56:33.201Z,45
2017-10-27T11:57:13.985Z,45
2017-10-27T11:57:55.616Z,75
2017-10-27T11:58:36.257Z,50
2017-10-27T11:59:16.594Z,45
2017-10-27T11:59:57.789Z,40
2017-10-27T12:00:38.417Z,40
2017-10-27T12:01:18.800Z,40
2017-10-27T12:01:59.420Z,35
2017-10-27T12:02:42.523Z,30
2017-10-27T12:03:23.959Z,25
2017-10-27T12:04:04.803Z,25
2017-10-27T12:04:45.714Z,20
2017-10-27T12:05:26.686Z,20
2017-10-27T12:06:07.163Z,20
2017-10-27T12:06:48.030Z,15
2017-10-27T12:07:28.502Z,15
2017-10-27T12:08:08.807Z,15
2017-10-27T12:08:50.051Z,10
2017-10-27T12:09:31.052Z,10
2017-10-27T12:10:11.600Z,10
2017-10-27T12:10:52.034Z,10
2017-10-27T12:11:34.590Z,15
2017-10-27T12:12:15.524Z,15
2017-10-27T12:12:55.925Z,20
2017-10-27T12:13:36.448Z,20
2017-10-27T12:14:16.831Z,25
2017-10-27T12:14:57.667Z,30
2017-10-27T12:15:38.467Z,55
2017-10-27T12:16:18.860Z,45
2017-10-27T12:17:01.104Z,35
2017-10-27T12:17:41.625Z,45
2017-10-27T12:18:22.669Z,35
2017-10-27T12:19:03.285Z,45
2017-10-27T12:19:44.201Z,50
2017-10-27T12:20:25.964Z,55
2017-10-27T12:21:06.730Z,55
2017-10-27T12:21:47.275Z,30
2017-10-27T12:22:27.910Z,30
2017-10-27T12:23:08.236Z,50
2017-10-27T12:23:51.027Z,30
2017-10-27T12:24:31.635Z,50
2017-10-27T12:25:12.052Z,40
2017-10-27T12:25:52.734Z,30
2017-10-27T12:26:32.986Z,35
2017-10-27T12:27:13.342Z,55
2017-10-27T12:27:53.966Z,55
2017-10-27T12:28:34.579Z,50
2017-10-27T12:29:15.595Z,35
2017-10-27T12:29:56.158Z,35
2017-10-27T12:30:40.688Z,35
2017-10-27T12:31:21.131Z,40
2017-10-27T12:32:02.611Z,40
2017-10-27T12:32:43.326Z,45
2017-10-27T12:33:25.629Z,45
2017-10-27T12:34:06.115Z,40
2017-10-27T12:34:48.217Z,40
2017-10-27T12:35:29.528Z,40
2017-10-27T12:36:10.708Z,40
2017-10-27T12:36:52.431Z,55
2017-10-27T12:37:32.633Z,50
2017-10-27T12:38:13.091Z,40
2017-10-27T12:38:53.732Z,40
2017-10-27T12:39:34.607Z,50
2017-10-27T12:40:15.285Z,55
2017-10-27T12:40:56.508Z,55
2017-10-27T12:41:37.693Z,55
2017-10-27T12:42:18.339Z,60
2017-10-27T12:42:59.312Z,60
2017-10-27T12:43:39.762Z,65
2017-10-27T12:44:20.519Z,65
2017-10-27T12:45:01.065Z,65
2017-10-27T12:45:41.624Z,70
2017-10-27T12:46:22.478Z,70
2017-10-27T12:47:03.003Z,70
2017-10-27T12:47:43.661Z,65
2017-10-27T12:48:24.100Z,65
2017-10-27T12:49:05.245Z,60
2017-10-27T12:49:47.513Z,40
2017-10-27T12:50:28.587Z,50
2017-10-27T12:51:09.114Z,50
2017-10-27T12:51:50.046Z,50
2017-10-27T12:52:30.899Z,50
2017-10-27T12:53:11.475Z,50
2017-10-27T12:53:53.222Z,55
2017-10-27T12:54:33.869Z,60
2017-10-27T12:55:14.915Z,60
2017-10-27T12:55:55.787Z,60
2017-10-27T12:56:36.454Z,55
2017-10-27T12:57:16.858Z,60
2017-10-27T12:57:57.932Z,60
2017-10-27T12:58:38.245Z,65
2017-10-27T12:59:19.664Z,45
2017-10-27T13:00:00.131Z,65
2017-10-27T13:00:41.375Z,50
2017-10-27T13:01:22.736Z,50
2017-10-27T13:02:03.600Z,50
2017-10-27T13:02:43.925Z,45
2017-10-27T13:03:25.614Z,45
2017-10-27T13:04:10.061Z,50
2017-10-27T13:08:31.181Z,50
2017-10-27T13:09:27.216Z,35
2017-10-27T13:10:24.469Z,45
2017-10-27T13:11:20.289Z,45
2017-10-27T13:12:14.240Z,45
2017-10-27T13:13:10.152Z,45
2017-10-27T13:14:02.230Z,40
2017-10-27T13:14:59.933Z,45
2017-10-27T13:15:55.437Z,45
2017-10-27T13:16:49.758Z,45
2017-10-27T13:21:10.534Z,35
2017-10-27T13:22:05.652Z,35
2017-10-27T13:26:55.420Z,30
2017-10-27T13:27:35.829Z,30
2017-10-27T13:31:43.328Z,40
2017-10-27T13:32:37.178Z,40
2017-10-27T13:33:30.640Z,40
2017-10-27T13:36:11.669Z,40
2017-10-27T13:36:52.124Z,40
2017-10-27T13:37:32.677Z,40
2017-10-27T13:38:13.080Z,35
2017-10-27T13:38:53.532Z,40
2017-10-27T13:39:34.025Z,35
2017-10-27T13:40:14.402Z,30
2017-10-27T13:40:54.934Z,25
2017-10-27T13:41:35.530Z,20
2017-10-27T13:42:16.029Z,20
2017-10-27T13:42:56.491Z,20
2017-10-27T13:43:36.964Z,15
2017-10-27T13:44:17.341Z,15
2017-10-27T13:44:57.838Z,15
2017-10-27T13:45:38.297Z,20
2017-10-27T13:46:18.757Z,20
2017-10-27T13:46:59.183Z,20
2017-10-27T13:47:39.723Z,20
2017-10-27T13:48:20.109Z,20
2017-10-27T13:49:01.355Z,15
2017-10-27T13:49:41.800Z,15
2017-10-27T13:50:22.281Z,15
2017-10-27T13:51:02.589Z,15
2017-10-27T13:51:43.060Z,15
2017-10-27T13:52:23.411Z,15
2017-10-27T13:53:03.888Z,15
2017-10-27T13:53:44.341Z,15
2017-10-27T13:54:24.871Z,15
2017-10-27T13:55:05.311Z,15
2017-10-27T13:55:45.684Z,15
2017-10-27T13:56:26.204Z,15
2017-10-27T13:57:06.560Z,20
2017-10-27T13:57:47.264Z,20
2017-10-27T13:58:27.783Z,20
2017-10-27T13:59:08.332Z,20
2017-10-27T13:59:48.805Z,20
2017-10-27T14:00:29.205Z,20
2017-10-27T14:01:09.640Z,20
2017-10-27T14:01:50.083Z,15
2017-10-27T14:02:30.516Z,15
2017-10-27T14:03:11.140Z,15
2017-10-27T14:03:51.410Z,15
2017-10-27T14:04:32.578Z,15
2017-10-27T14:05:12.949Z,15
2017-10-27T14:05:53.381Z,20
2017-10-27T14:06:33.823Z,25
2017-10-27T14:07:14.228Z,20
2017-10-27T14:07:54.657Z,25
2017-10-27T14:08:35.093Z,25
2017-10-27T14:09:15.649Z,30
2017-10-27T14:09:56.072Z,35
2017-10-27T14:10:37.828Z,35
2017-10-27T14:11:18.018Z,35
2017-10-27T14:11:58.469Z,35
2017-10-27T14:12:38.903Z,35
2017-10-27T14:13:19.403Z,35
2017-10-27T14:13:59.815Z,35
2017-10-27T14:14:40.235Z,35
2017-10-27T14:15:20.709Z,35
2017-10-27T14:16:01.146Z,35
2017-10-27T14:16:41.570Z,30
2017-10-27T14:17:21.959Z,30
2017-10-27T14:18:02.399Z,35
2017-10-27T14:18:42.875Z,35
2017-10-27T14:19:23.281Z,40
2017-10-27T14:20:03.772Z,40
2017-10-27T14:20:44.184Z,40
2017-10-27T14:21:25.698Z,40
2017-10-27T14:22:07.113Z,35
2017-10-27T14:22:47.622Z,40
2017-10-27T14:23:28.091Z,40
2017-10-27T14:24:09.281Z,35
2017-10-27T14:24:49.692Z,40
2017-10-27T14:25:30.087Z,35
2017-10-27T14:26:10.544Z,40
2017-10-27T14:26:50.986Z,35
2017-10-27T14:27:31.438Z,30
2017-10-27T14:28:11.914Z,25
2017-10-27T14:28:52.330Z,25
2017-10-27T14:29:32.843Z,20
2017-10-27T14:30:14.201Z,20
2017-10-27T14:30:54.746Z,15
2017-10-27T14:31:35.151Z,15
2017-10-27T14:32:15.587Z,20
2017-10-27T14:32:56.128Z,15
2017-10-27T14:33:36.551Z,15
2017-10-27T14:34:17.123Z,20
2017-10-27T14:34:57.595Z,15
2017-10-27T14:35:38.037Z,15
2017-10-27T14:36:18.475Z,15
2017-10-27T14:36:58.956Z,20
2017-10-27T14:37:39.397Z,30
2017-10-27T14:38:19.850Z,25
2017-10-27T14:39:00.372Z,20
2017-10-27T14:39:40.821Z,25
2017-10-27T14:40:21.590Z,20
2017-10-27T14:41:01.931Z,20
2017-10-27T14:41:42.320Z,20
2017-10-27T14:42:22.748Z,20
2017-10-27T14:43:03.248Z,40
2017-10-27T14:43:43.685Z,20
2017-10-27T14:44:24.214Z,20
2017-10-27T14:45:04.581Z,15
2017-10-27T14:45:45.002Z,15
2017-10-27T14:46:25.416Z,15
2017-10-27T14:47:05.938Z,15
2017-10-27T14:47:46.490Z,10
2017-10-27T14:48:26.967Z,10
2017-10-27T14:49:07.523Z,10
2017-10-27T14:49:47.814Z,10
2017-10-27T14:50:28.263Z,15
2017-10-27T14:51:08.811Z,15
2017-10-27T14:53:42.780Z,10
2017-10-27T14:54:23.190Z,10
2017-10-27T14:55:03.666Z,10
2017-10-27T14:55:44.085Z,10
2017-10-27T14:56:24.513Z,10
2017-10-27T14:57:05.007Z,10
2017-10-27T14:57:45.384Z,5
2017-10-27T14:58:25.762Z,5
2017-10-27T14:59:06.183Z,5
2017-10-27T14:59:46.590Z,5
2017-10-27T15:00:26.990Z,5
2017-10-27T15:01:07.446Z,5
2017-10-27T15:01:47.853Z,5
2017-10-27T15:02:28.338Z,5
2017-10-27T15:03:08.693Z,5
2017-10-27T15:03:49.176Z,5
2017-10-27T15:04:29.608Z,5
2017-10-27T15:05:10.126Z,5
2017-10-27T15:05:50.549Z,5
2017-10-27T15:06:30.940Z,5
2017-10-27T15:07:11.366Z,5
2017-10-27T15:07:51.881Z,5
2017-10-27T15:08:32.314Z,5
2017-10-27T15:09:12.808Z,5
2017-10-27T15:09:53.334Z,5
2017-10-27T15:10:33.811Z,5
2017-10-27T15:11:14.264Z,5
2017-10-27T15:11:54.714Z,0
2017-10-27T15:12:35.149Z,0
2017-10-27T15:13:15.810Z,0
2017-10-27T15:13:56.200Z,0
2017-10-27T15:14:36.653Z,0
2017-10-27T15:15:17.132Z,0
2017-10-27T15:15:57.544Z,0
2017-10-27T15:16:38.022Z,0
2017-10-27T15:17:18.428Z,0
2017-10-27T15:17:58.985Z,0
2017-10-27T15:18:39.369Z,0
2017-10-27T15:19:19.781Z,0
2017-10-27T15:20:00.234Z,0
2017-10-27T15:20:40.567Z,0
2017-10-27T15:21:21.032Z,0
2017-10-27T15:22:01.473Z,0
2017-10-27T15:22:41.915Z,0
2017-10-27T15:23:22.527Z,0
2017-10-27T15:24:02.948Z,0
2017-10-27T15:24:43.333Z,0
2017-10-27T15:25:23.793Z,5
2017-10-27T15:26:04.223Z,0
2017-10-27T15:26:44.619Z,0
2017-10-27T15:27:25.067Z,0
2017-10-27T15:28:05.498Z,0
2017-10-27T15:28:46.020Z,0
2017-10-27T15:29:26.681Z,0
2017-10-27T15:30:07.153Z,5
2017-10-27T15:30:47.498Z,5
2017-10-27T15:31:27.956Z,5
2017-10-27T15:32:08.394Z,5
2017-10-27T15:32:48.833Z,5
2017-10-27T15:33:29.402Z,5
2017-10-27T15:34:09.811Z,5
2017-10-27T15:34:50.192Z,5
2017-10-27T15:35:30.652Z,10